createdAt,value
2022-08-25T00:01:11.979Z,24.37
2022-08-25T00:02:30.856Z,24.40
2022-08-25T00:03:47.530Z,24.38
2022-08-25T00:05:06.743Z,24.37
2022-08-25T00:06:24.378Z,24.38
2022-08-25T00:07:42.690Z,24.38
2022-08-25T00:08:59.041Z,24.38
2022-08-25T00:10:17.662Z,24.40
2022-08-25T00:11:34.023Z,24.38
2022-08-25T00:12:50.383Z,24.37
2022-08-25T00:14:06.732Z,24.38
2022-08-25T00:15:23.124Z,24.38
2022-08-25T00:16:39.755Z,24.38
2022-08-25T00:17:57.074Z,24.38
2022-08-25T00:19:13.418Z,24.40
2022-08-25T00:20:31.776Z,24.37
2022-08-25T00:21:48.117Z,24.38
2022-08-25T00:23:04.779Z,24.38
2022-08-25T00:24:24.009Z,24.38
2022-08-25T00:25:40.460Z,24.37
2022-08-25T00:26:58.771Z,24.37
2022-08-25T00:28:15.130Z,24.38
2022-08-25T00:29:33.730Z,24.41
2022-08-25T00:30:50.138Z,24.40
2022-08-25T00:32:08.483Z,24.38
2022-08-25T00:33:24.853Z,24.37
2022-08-25T00:34:41.255Z,24.38
2022-08-25T00:35:57.911Z,24.38
2022-08-25T00:37:14.262Z,24.37
2022-08-25T00:38:32.582Z,24.40
2022-08-25T00:39:49.015Z,24.37
2022-08-25T00:41:07.314Z,24.40
2022-08-25T00:42:23.966Z,24.37
2022-08-25T00:43:40.357Z,24.38
2022-08-25T00:44:56.717Z,24.37
2022-08-25T00:46:13.131Z,24.37
2022-08-25T00:47:29.461Z,24.37
2022-08-25T00:48:46.109Z,24.36
2022-08-25T00:50:02.468Z,24.38
2022-08-25T00:51:20.790Z,24.37
2022-08-25T00:52:37.160Z,24.37
2022-08-25T00:53:53.531Z,24.37
2022-08-25T00:55:10.151Z,24.36
2022-08-25T00:56:26.511Z,24.37
2022-08-25T00:57:44.852Z,24.37
2022-08-25T00:59:01.231Z,24.37
2022-08-25T01:00:17.644Z,24.37
2022-08-25T01:01:34.389Z,24.37
2022-08-25T01:02:50.858Z,24.38
2022-08-25T01:04:07.196Z,24.36
2022-08-25T01:05:23.595Z,24.37
2022-08-25T01:06:39.956Z,24.37
2022-08-25T01:07:58.641Z,24.36
2022-08-25T01:09:15.277Z,24.38
2022-08-25T01:10:31.656Z,24.37
2022-08-25T01:11:48.017Z,24.37
2022-08-25T01:13:04.371Z,24.37
2022-08-25T01:14:21.045Z,24.37
2022-08-25T01:15:39.420Z,24.34
2022-08-25T01:16:55.761Z,24.37
2022-08-25T01:18:12.121Z,24.37
2022-08-25T01:19:28.511Z,24.36
2022-08-25T01:20:45.141Z,24.34
2022-08-25T01:22:01.543Z,24.36
2022-08-25T01:23:17.853Z,24.36
2022-08-25T01:24:34.244Z,24.36
2022-08-25T01:25:50.592Z,24.37
2022-08-25T01:27:07.256Z,24.38
2022-08-25T01:28:25.559Z,24.38
2022-08-25T01:29:43.895Z,24.37
2022-08-25T01:31:00.272Z,24.37
2022-08-25T01:32:18.586Z,24.37
2022-08-25T01:33:35.218Z,24.37
2022-08-25T01:34:51.851Z,24.34
2022-08-25T01:36:08.327Z,24.36
2022-08-25T01:37:24.679Z,24.36
2022-08-25T01:38:41.031Z,24.37
2022-08-25T01:39:59.678Z,24.37
2022-08-25T01:41:16.001Z,24.36
2022-08-25T01:42:34.311Z,24.37
2022-08-25T01:43:50.661Z,24.37
2022-08-25T01:45:07.053Z,24.36
2022-08-25T01:46:23.770Z,24.36
2022-08-25T01:47:40.146Z,24.34
2022-08-25T01:48:56.495Z,24.37
2022-08-25T01:50:12.883Z,24.37
2022-08-25T01:51:31.185Z,24.37
2022-08-25T01:52:47.824Z,24.37
2022-08-25T01:54:06.137Z,24.36
2022-08-25T01:55:24.557Z,24.38
2022-08-25T01:56:40.908Z,24.37
2022-08-25T01:57:57.268Z,24.37
2022-08-25T01:59:13.910Z,24.37
2022-08-25T02:00:37.117Z,24.38
2022-08-25T02:01:59.676Z,24.37
2022-08-25T02:03:18.606Z,24.37
2022-08-25T02:04:35.110Z,24.36
2022-08-25T02:05:51.782Z,24.37
2022-08-25T02:07:08.141Z,24.36
2022-08-25T02:08:24.503Z,24.37
2022-08-25T02:09:42.814Z,24.37
2022-08-25T02:10:59.232Z,24.38
2022-08-25T02:12:17.905Z,24.38
2022-08-25T02:13:35.434Z,24.38
2022-08-25T02:14:51.786Z,24.36
2022-08-25T02:16:08.156Z,24.36
2022-08-25T02:17:24.539Z,24.37
2022-08-25T02:18:41.168Z,24.38
2022-08-25T02:19:57.517Z,24.36
2022-08-25T02:21:15.838Z,24.36
2022-08-25T02:22:32.240Z,24.37
2022-08-25T02:23:48.599Z,24.37
2022-08-25T02:25:05.228Z,24.37
2022-08-25T02:26:21.591Z,24.37
2022-08-25T02:27:39.932Z,24.38
2022-08-25T02:28:56.294Z,24.38
2022-08-25T02:30:12.643Z,24.38
2022-08-25T02:31:29.305Z,24.37
2022-08-25T02:32:47.603Z,24.38
2022-08-25T02:34:03.964Z,24.37
2022-08-25T02:35:20.325Z,24.37
2022-08-25T02:36:36.705Z,24.36
2022-08-25T02:37:53.502Z,24.37
2022-08-25T02:39:10.906Z,24.36
2022-08-25T02:40:27.283Z,24.37
2022-08-25T02:41:43.649Z,24.37
2022-08-25T02:43:01.948Z,24.37
2022-08-25T02:44:18.616Z,24.37
2022-08-25T02:45:35.026Z,24.37
2022-08-25T02:46:53.341Z,24.37
2022-08-25T02:48:09.689Z,24.36
2022-08-25T02:49:26.051Z,24.36
2022-08-25T02:50:42.711Z,24.36
2022-08-25T02:52:01.043Z,24.34
2022-08-25T02:53:17.702Z,24.34
2022-08-25T02:54:34.070Z,24.34
2022-08-25T02:55:50.452Z,24.37
2022-08-25T02:57:07.084Z,24.34
2022-08-25T02:58:23.435Z,24.36
2022-08-25T02:59:41.763Z,24.36
2022-08-25T03:00:58.193Z,24.36
2022-08-25T03:02:14.535Z,24.36
2022-08-25T03:03:31.168Z,24.37
2022-08-25T03:04:47.606Z,24.34
2022-08-25T03:06:05.959Z,24.33
2022-08-25T03:07:24.835Z,24.34
2022-08-25T03:08:43.109Z,24.36
2022-08-25T03:09:59.740Z,24.36
2022-08-25T03:11:16.131Z,24.33
2022-08-25T03:12:32.500Z,24.36
2022-08-25T03:13:48.880Z,24.36
2022-08-25T03:15:05.255Z,24.34
2022-08-25T03:16:27.403Z,24.36
2022-08-25T03:17:45.687Z,24.33
2022-08-25T03:19:02.432Z,24.36
2022-08-25T03:20:20.965Z,24.34
2022-08-25T03:21:37.593Z,24.36
2022-08-25T03:22:53.957Z,24.36
2022-08-25T03:24:10.366Z,24.33
2022-08-25T03:25:26.732Z,24.33
2022-08-25T03:26:43.077Z,24.33
2022-08-25T03:27:59.788Z,24.36
2022-08-25T03:29:18.088Z,24.36
2022-08-25T03:30:34.450Z,24.31
2022-08-25T03:31:50.851Z,24.34
2022-08-25T03:33:07.198Z,24.36
2022-08-25T03:34:25.851Z,24.33
2022-08-25T03:35:44.170Z,24.36
2022-08-25T03:37:02.471Z,24.33
2022-08-25T03:38:18.843Z,24.34
2022-08-25T03:39:37.204Z,24.33
2022-08-25T03:40:53.873Z,24.34
2022-08-25T03:42:12.183Z,24.34
2022-08-25T03:43:28.556Z,24.33
2022-08-25T03:44:46.919Z,24.33
2022-08-25T03:46:03.320Z,24.29
2022-08-25T03:47:19.927Z,24.31
2022-08-25T03:48:36.287Z,24.33
2022-08-25T03:49:52.669Z,24.33
2022-08-25T03:51:10.998Z,24.33
2022-08-25T03:52:29.326Z,24.34
2022-08-25T03:53:45.939Z,24.31
2022-08-25T03:55:04.312Z,24.33
2022-08-25T03:56:20.661Z,24.33
2022-08-25T03:57:38.989Z,24.36
2022-08-25T03:58:55.380Z,24.34
2022-08-25T04:00:12.031Z,24.31
2022-08-25T04:01:28.472Z,24.33
2022-08-25T04:02:44.946Z,24.33
2022-08-25T04:04:01.341Z,24.34
2022-08-25T04:05:17.709Z,24.34
2022-08-25T04:06:34.346Z,24.33
2022-08-25T04:07:50.715Z,24.29
2022-08-25T04:09:09.046Z,24.31
2022-08-25T04:10:25.406Z,24.31
2022-08-25T04:11:42.741Z,24.33
2022-08-25T04:12:59.405Z,24.29
2022-08-25T04:14:17.787Z,24.31
2022-08-25T04:15:36.122Z,24.31
2022-08-25T04:16:54.450Z,24.33
2022-08-25T04:18:12.820Z,24.31
2022-08-25T04:19:29.492Z,24.31
2022-08-25T04:20:47.801Z,24.33
2022-08-25T04:22:04.161Z,24.31
2022-08-25T04:23:22.481Z,24.29
2022-08-25T04:24:40.822Z,24.29
2022-08-25T04:25:59.413Z,24.33
2022-08-25T04:27:17.714Z,24.33
2022-08-25T04:28:37.884Z,24.31
2022-08-25T04:29:56.214Z,24.33
2022-08-25T04:31:14.547Z,24.29
2022-08-25T04:32:33.125Z,24.31
2022-08-25T04:33:51.496Z,24.31
2022-08-25T04:35:09.809Z,24.31
2022-08-25T04:36:28.146Z,24.29
2022-08-25T04:37:45.438Z,24.29
2022-08-25T04:39:03.559Z,24.33
2022-08-25T04:40:23.867Z,24.33
2022-08-25T04:41:45.069Z,24.33
2022-08-25T04:43:03.390Z,24.33
2022-08-25T04:44:21.790Z,24.33
2022-08-25T04:45:40.414Z,24.31
2022-08-25T04:46:58.815Z,24.33
2022-08-25T04:48:16.644Z,24.29
2022-08-25T04:49:35.032Z,24.29
2022-08-25T04:50:53.365Z,24.29
2022-08-25T04:52:14.447Z,24.31
2022-08-25T04:53:32.026Z,24.31
2022-08-25T04:54:50.374Z,24.29
2022-08-25T04:56:08.696Z,24.28
2022-08-25T04:57:27.091Z,24.23
2022-08-25T04:58:45.708Z,24.21
2022-08-25T05:00:03.039Z,24.16
2022-08-25T05:01:21.426Z,24.10
2022-08-25T05:02:40.250Z,24.08
2022-08-25T05:03:57.704Z,24.03
2022-08-25T05:05:14.362Z,23.98
2022-08-25T05:06:32.673Z,23.98
2022-08-25T05:07:50.989Z,23.94
2022-08-25T05:09:08.323Z,23.89
2022-08-25T05:10:28.331Z,23.89
2022-08-25T05:11:45.653Z,23.86
2022-08-25T05:13:05.339Z,23.84
2022-08-25T05:14:26.327Z,23.84
2022-08-25T05:15:44.004Z,23.82
2022-08-25T05:17:03.185Z,23.79
2022-08-25T05:18:22.057Z,23.74
2022-08-25T05:19:40.929Z,23.74
2022-08-25T05:20:58.277Z,23.76
2022-08-25T05:22:17.128Z,23.78
2022-08-25T05:23:36.269Z,23.81
2022-08-25T05:24:55.129Z,23.78
2022-08-25T05:26:19.079Z,23.79
2022-08-25T05:27:36.760Z,23.84
2022-08-25T05:28:54.121Z,23.82
2022-08-25T05:30:13.205Z,23.86
2022-08-25T05:31:32.316Z,23.86
2022-08-25T05:32:49.642Z,23.89
2022-08-25T05:34:07.922Z,23.89
2022-08-25T05:35:27.773Z,23.92
2022-08-25T05:36:48.907Z,23.94
2022-08-25T05:38:07.809Z,23.94
2022-08-25T05:39:31.483Z,23.92
2022-08-25T05:40:50.848Z,23.96
2022-08-25T05:42:09.387Z,23.92
2022-08-25T05:43:29.017Z,23.94
2022-08-25T05:44:46.561Z,23.92
2022-08-25T05:46:04.922Z,23.92
2022-08-25T05:47:22.913Z,23.92
2022-08-25T05:48:40.309Z,23.94
2022-08-25T05:49:58.640Z,23.96
2022-08-25T05:51:17.368Z,23.94
2022-08-25T05:52:35.870Z,23.96
2022-08-25T05:53:54.240Z,23.89
2022-08-25T05:55:11.858Z,23.92
2022-08-25T05:56:30.213Z,23.91
2022-08-25T05:57:49.589Z,23.94
2022-08-25T05:59:09.556Z,23.92
2022-08-25T06:00:27.740Z,23.91
2022-08-25T06:01:47.973Z,23.89
2022-08-25T06:03:05.417Z,23.91
2022-08-25T06:04:23.800Z,23.89
2022-08-25T06:05:41.191Z,23.91
2022-08-25T06:06:59.584Z,23.92
2022-08-25T06:08:17.280Z,23.91
2022-08-25T06:09:35.773Z,23.89
2022-08-25T06:10:54.622Z,23.89
2022-08-25T06:12:14.274Z,23.91
2022-08-25T06:13:31.601Z,23.88
2022-08-25T06:14:49.062Z,23.89
2022-08-25T06:16:06.489Z,23.88
2022-08-25T06:17:23.837Z,23.85
2022-08-25T06:18:41.165Z,23.86
2022-08-25T06:20:00.346Z,23.86
2022-08-25T06:21:18.135Z,23.89
2022-08-25T06:22:37.046Z,23.89
2022-08-25T06:23:55.819Z,23.88
2022-08-25T06:25:18.736Z,23.88
2022-08-25T06:26:42.718Z,23.86
2022-08-25T06:28:00.977Z,23.86
2022-08-25T06:29:19.409Z,23.86
2022-08-25T06:30:36.770Z,23.86
2022-08-25T06:31:56.809Z,23.89
2022-08-25T06:33:15.660Z,23.89
2022-08-25T06:34:34.942Z,23.91
2022-08-25T06:35:53.806Z,23.89
2022-08-25T06:37:11.161Z,23.91
2022-08-25T06:38:28.783Z,23.94
2022-08-25T06:39:47.694Z,23.94
2022-08-25T06:41:06.125Z,23.97
2022-08-25T06:42:23.624Z,23.97
2022-08-25T06:43:48.161Z,23.98
2022-08-25T06:45:06.365Z,23.98
2022-08-25T06:46:36.578Z,24.01
2022-08-25T06:47:45.888Z,23.98
2022-08-25T06:49:04.788Z,23.97
2022-08-25T06:50:23.944Z,24.00
2022-08-25T06:51:41.871Z,24.03
2022-08-25T06:52:59.251Z,24.01
2022-08-25T06:54:18.142Z,24.00
2022-08-25T06:55:37.291Z,24.03
2022-08-25T06:56:54.722Z,24.01
2022-08-25T06:58:14.481Z,24.01
2022-08-25T06:59:33.552Z,24.03
2022-08-25T07:00:50.970Z,24.04
2022-08-25T07:02:08.333Z,24.03
2022-08-25T07:03:25.966Z,24.06
2022-08-25T07:04:45.717Z,24.06
2022-08-25T07:06:03.162Z,24.07
2022-08-25T07:07:21.409Z,24.07
2022-08-25T07:08:38.948Z,24.06
2022-08-25T07:09:57.349Z,24.06
2022-08-25T07:11:16.380Z,24.08
2022-08-25T07:12:37.161Z,24.08
2022-08-25T07:13:55.519Z,24.08
2022-08-25T07:15:20.494Z,24.08
2022-08-25T07:16:38.449Z,24.08
2022-08-25T07:18:00.826Z,24.08
2022-08-25T07:19:22.853Z,24.10
2022-08-25T07:20:42.236Z,24.07
2022-08-25T07:22:00.585Z,24.10
2022-08-25T07:23:20.254Z,24.11
2022-08-25T07:24:40.489Z,24.11
2022-08-25T07:25:59.500Z,24.08
2022-08-25T07:27:18.540Z,24.11
2022-08-25T07:28:39.829Z,24.11
2022-08-25T07:30:04.359Z,24.10
2022-08-25T07:31:23.725Z,24.10
2022-08-25T07:32:47.037Z,24.13
2022-08-25T07:34:10.767Z,24.11
2022-08-25T07:35:37.646Z,24.13
2022-08-25T07:36:53.678Z,24.13
2022-08-25T07:38:12.607Z,24.16
2022-08-25T07:39:32.439Z,24.16
2022-08-25T07:40:53.317Z,24.15
2022-08-25T07:42:11.940Z,24.13
2022-08-25T07:43:31.612Z,24.16
2022-08-25T07:44:49.991Z,24.15
2022-08-25T07:46:07.908Z,24.18
2022-08-25T07:47:25.579Z,24.15
2022-08-25T07:48:42.984Z,24.16
2022-08-25T07:50:07.233Z,24.16
2022-08-25T07:52:43.395Z,24.19
2022-08-25T07:54:02.542Z,24.18
2022-08-25T07:55:21.206Z,24.18
2022-08-25T07:56:38.559Z,24.21
2022-08-25T07:57:57.109Z,24.21
2022-08-25T07:59:15.691Z,24.22
2022-08-25T08:00:33.718Z,24.23
2022-08-25T08:01:54.140Z,24.22
2022-08-25T08:03:35.158Z,24.23
2022-08-25T08:04:36.945Z,24.22
2022-08-25T08:05:56.720Z,24.23
2022-08-25T08:07:16.926Z,24.26
2022-08-25T08:11:53.869Z,24.26
2022-08-25T08:13:10.747Z,24.28
2022-08-25T08:14:28.421Z,24.28
2022-08-25T08:15:46.360Z,24.33
2022-08-25T08:17:06.053Z,24.31
2022-08-25T08:18:26.780Z,24.33
2022-08-25T08:19:45.252Z,24.33
2022-08-25T08:21:06.236Z,24.31
2022-08-25T08:22:24.646Z,24.34
2022-08-25T08:23:44.609Z,24.36
2022-08-25T08:25:05.153Z,24.36
2022-08-25T08:26:48.250Z,24.40
2022-08-25T08:27:55.073Z,24.41
2022-08-25T08:29:14.981Z,24.38
2022-08-25T08:30:33.214Z,24.40
2022-08-25T08:31:53.814Z,24.38
2022-08-25T08:33:13.639Z,24.41
2022-08-25T08:34:32.289Z,24.41
2022-08-25T08:35:54.196Z,24.44
2022-08-25T08:37:15.072Z,24.44
2022-08-25T08:38:34.253Z,24.44
2022-08-25T08:39:56.089Z,24.44
2022-08-25T08:41:14.985Z,24.47
2022-08-25T08:42:35.631Z,24.47
2022-08-25T08:43:53.248Z,24.47
2022-08-25T08:45:12.413Z,24.48
2022-08-25T08:46:30.689Z,24.45
2022-08-25T08:49:41.066Z,24.52
2022-08-25T08:51:02.564Z,24.52
2022-08-25T08:52:26.564Z,24.53
2022-08-25T08:53:47.980Z,24.53
2022-08-25T08:55:07.680Z,24.55
2022-08-25T08:56:32.040Z,24.55
2022-08-25T08:57:51.663Z,24.55
2022-08-25T08:59:10.631Z,24.56
2022-08-25T09:00:30.112Z,24.56
2022-08-25T09:01:53.219Z,24.56
2022-08-25T09:03:13.751Z,24.58
2022-08-25T09:04:31.391Z,24.58
2022-08-25T09:05:52.931Z,24.60
2022-08-25T09:07:14.864Z,24.58
2022-08-25T09:08:35.197Z,24.58
2022-08-25T09:11:45.035Z,24.59
2022-08-25T09:13:05.705Z,24.62
2022-08-25T09:14:30.678Z,24.59
2022-08-25T09:15:48.505Z,24.60
2022-08-25T09:17:07.891Z,24.60
2022-08-25T09:18:28.706Z,24.62
2022-08-25T09:19:52.604Z,24.63
2022-08-25T09:21:10.031Z,24.62
2022-08-25T09:22:35.568Z,24.59
2022-08-25T09:24:01.642Z,24.62
2022-08-25T09:25:39.747Z,24.63
2022-08-25T09:26:48.422Z,24.63
2022-08-25T09:28:09.806Z,24.63
2022-08-25T09:29:29.213Z,24.63
2022-08-25T09:30:47.296Z,24.63
2022-08-25T09:32:06.009Z,24.65
2022-08-25T09:33:26.945Z,24.63
2022-08-25T09:34:47.376Z,24.66
2022-08-25T09:36:08.835Z,24.65
2022-08-25T09:37:30.028Z,24.65
2022-08-25T09:38:49.131Z,24.66
2022-08-25T09:40:05.704Z,24.66
2022-08-25T09:41:25.370Z,24.68
2022-08-25T09:42:46.320Z,24.68
2022-08-25T09:44:09.831Z,24.66
2022-08-25T09:45:32.743Z,24.70
2022-08-25T09:46:52.164Z,24.70
2022-08-25T09:48:09.643Z,24.71
2022-08-25T09:49:28.930Z,24.70
2022-08-25T09:50:46.730Z,24.68
2022-08-25T09:52:05.230Z,24.71
2022-08-25T09:53:22.635Z,24.71
2022-08-25T09:54:44.149Z,24.71
2022-08-25T09:56:07.147Z,24.74
2022-08-25T09:57:26.058Z,24.71
2022-08-25T09:58:45.085Z,24.74
2022-08-25T10:00:05.777Z,24.75
2022-08-25T10:01:28.840Z,24.75
2022-08-25T10:02:52.567Z,24.71
2022-08-25T10:04:20.258Z,24.74
2022-08-25T10:05:40.468Z,24.75
2022-08-25T10:06:58.402Z,24.74
2022-08-25T10:08:18.300Z,24.75
2022-08-25T10:09:42.779Z,24.74
2022-08-25T10:11:03.514Z,24.75
2022-08-25T10:14:17.499Z,24.76
2022-08-25T10:15:37.513Z,24.76
2022-08-25T10:16:56.700Z,24.78
2022-08-25T10:18:16.855Z,24.78
2022-08-25T10:19:38.970Z,24.78
2022-08-25T10:20:59.452Z,24.79
2022-08-25T10:24:13.012Z,24.78
2022-08-25T10:27:21.046Z,24.82
2022-08-25T10:28:41.496Z,24.79
2022-08-25T10:29:59.945Z,24.81
2022-08-25T10:31:22.872Z,24.78
2022-08-25T10:32:41.975Z,24.82
2022-08-25T10:34:01.059Z,24.79
2022-08-25T10:35:21.577Z,24.86
2022-08-25T10:38:35.297Z,24.86
2022-08-25T10:40:00.712Z,24.86
2022-08-25T10:43:12.222Z,24.89
2022-08-25T10:44:31.331Z,24.90
2022-08-25T10:45:50.908Z,24.90
2022-08-25T10:47:15.110Z,24.90
2022-08-25T10:48:39.041Z,24.85
2022-08-25T10:49:56.429Z,24.90
2022-08-25T10:51:18.784Z,24.86
2022-08-25T10:52:38.303Z,24.90
2022-08-25T10:53:59.942Z,24.89
2022-08-25T10:55:23.607Z,24.86
2022-08-25T10:56:47.950Z,24.85
2022-08-25T11:00:01.324Z,24.86
2022-08-25T11:01:20.859Z,24.86
2022-08-25T11:02:52.015Z,24.90
2022-08-25T11:04:17.464Z,24.86
2022-08-25T11:05:38.259Z,24.85
2022-08-25T11:06:56.841Z,24.89
2022-08-25T11:08:16.851Z,24.86
2022-08-25T11:09:35.970Z,24.86
2022-08-25T11:10:53.151Z,24.89
2022-08-25T11:12:12.513Z,24.89
2022-08-25T11:15:21.084Z,24.89
2022-08-25T11:16:40.450Z,24.85
2022-08-25T11:18:00.113Z,24.89
2022-08-25T11:19:22.027Z,24.86
2022-08-25T11:20:40.429Z,24.85
2022-08-25T11:22:01.563Z,24.89
2022-08-25T11:23:20.926Z,24.89
2022-08-25T11:24:46.119Z,24.90
2022-08-25T11:26:02.719Z,24.85
2022-08-25T11:27:21.619Z,24.89
2022-08-25T11:28:39.299Z,24.89
2022-08-25T11:29:57.984Z,24.86
2022-08-25T11:31:16.401Z,24.90
2022-08-25T11:32:36.682Z,24.91
2022-08-25T11:33:54.385Z,24.90
2022-08-25T11:35:12.623Z,24.90
2022-08-25T11:36:30.193Z,24.91
2022-08-25T11:37:50.044Z,24.90
2022-08-25T11:39:09.665Z,24.91
2022-08-25T11:40:28.320Z,24.90
2022-08-25T11:41:48.690Z,24.91
2022-08-25T11:43:08.219Z,24.93
2022-08-25T11:44:27.434Z,24.91
2022-08-25T11:45:46.436Z,24.91
2022-08-25T11:47:21.110Z,24.93
2022-08-25T11:50:30.108Z,24.93
2022-08-25T11:51:49.431Z,24.91
2022-08-25T11:53:05.912Z,24.90
2022-08-25T11:54:29.249Z,24.91
2022-08-25T11:55:48.885Z,24.91
2022-08-25T11:57:08.400Z,24.90
2022-08-25T11:58:25.770Z,24.90
2022-08-25T11:59:44.826Z,24.90
2022-08-25T12:01:10.985Z,24.91
2022-08-25T12:04:22.281Z,24.93
2022-08-25T12:07:33.983Z,24.91
2022-08-25T12:08:52.145Z,24.91
2022-08-25T12:12:03.349Z,24.93
2022-08-25T12:13:24.692Z,24.93
2022-08-25T12:14:43.827Z,24.93
2022-08-25T12:16:03.868Z,24.91
2022-08-25T12:17:22.232Z,24.91
2022-08-25T12:18:45.927Z,24.93
2022-08-25T12:20:05.828Z,24.91
2022-08-25T12:21:24.309Z,24.90
2022-08-25T12:22:43.488Z,24.91
2022-08-25T12:24:03.323Z,24.91
2022-08-25T12:25:24.105Z,24.91
2022-08-25T12:26:41.488Z,24.89
2022-08-25T12:28:03.500Z,24.91
2022-08-25T12:31:18.962Z,24.93
2022-08-25T12:32:39.039Z,24.91
2022-08-25T12:35:49.153Z,24.94
2022-08-25T12:37:08.054Z,24.91
2022-08-25T12:40:19.057Z,24.93
2022-08-25T12:41:38.855Z,24.91
2022-08-25T12:43:07.685Z,24.90
2022-08-25T12:46:17.711Z,24.90
2022-08-25T12:47:35.592Z,24.90
2022-08-25T12:48:55.155Z,24.90
2022-08-25T12:50:14.693Z,24.91
2022-08-25T12:53:25.222Z,24.91
2022-08-25T12:54:42.680Z,24.89
2022-08-25T12:56:00.308Z,24.86
2022-08-25T12:57:25.070Z,24.89
2022-08-25T12:58:58.753Z,24.86
2022-08-25T13:00:06.359Z,24.86
2022-08-25T13:01:35.597Z,24.89
2022-08-25T13:02:52.149Z,24.89
2022-08-25T13:06:01.768Z,24.90
2022-08-25T13:07:19.118Z,24.89
2022-08-25T13:10:29.672Z,24.86
2022-08-25T13:11:47.095Z,24.86
2022-08-25T13:13:07.749Z,24.84
2022-08-25T13:14:27.139Z,24.89
2022-08-25T13:15:54.870Z,24.89
2022-08-25T13:17:14.475Z,24.89
2022-08-25T13:18:34.235Z,24.89
2022-08-25T13:20:05.586Z,24.85
2022-08-25T13:21:25.095Z,24.86
2022-08-25T13:22:44.528Z,24.85
2022-08-25T13:24:05.095Z,24.85
2022-08-25T13:25:22.925Z,24.85
2022-08-25T13:26:48.334Z,24.86
2022-08-25T13:28:11.109Z,24.86
2022-08-25T13:29:34.861Z,24.89
2022-08-25T13:30:55.101Z,24.86
2022-08-25T13:32:14.690Z,24.85
2022-08-25T13:33:32.087Z,24.89
2022-08-25T13:36:12.040Z,24.86
2022-08-25T13:37:31.303Z,24.86
2022-08-25T13:38:49.223Z,24.89
2022-08-25T13:40:07.278Z,24.89
2022-08-25T13:41:33.862Z,24.90
2022-08-25T13:42:55.947Z,24.86
2022-08-25T13:44:14.598Z,24.86
2022-08-25T13:45:32.283Z,24.90
2022-08-25T13:46:49.648Z,24.89
2022-08-25T13:48:23.017Z,24.90
2022-08-25T13:49:30.920Z,24.91
2022-08-25T13:50:51.659Z,24.89
2022-08-25T13:52:09.483Z,24.89
2022-08-25T13:53:33.109Z,24.90
2022-08-25T13:54:50.484Z,24.89
2022-08-25T13:56:08.986Z,24.89
2022-08-25T13:57:30.426Z,24.90
2022-08-25T13:58:49.414Z,24.89
2022-08-25T14:00:08.264Z,24.89
2022-08-25T14:27:18.217Z,24.85
2022-08-25T14:31:02.328Z,24.89
2022-08-25T14:32:06.660Z,24.90
2022-08-25T14:33:52.730Z,24.90
2022-08-25T14:35:01.802Z,24.86
2022-08-25T14:36:22.801Z,24.89
2022-08-25T14:37:40.143Z,24.85
2022-08-25T14:38:58.774Z,24.89
2022-08-25T14:40:19.541Z,24.89
2022-08-25T14:41:36.996Z,24.86
2022-08-25T14:42:55.246Z,24.85
2022-08-25T14:44:12.602Z,24.89
2022-08-25T14:45:29.998Z,24.89
2022-08-25T14:46:48.384Z,24.86
2022-08-25T14:48:10.220Z,24.86
2022-08-25T14:49:28.002Z,24.85
2022-08-25T14:50:47.457Z,24.89
2022-08-25T14:52:08.554Z,24.84
2022-08-25T14:53:26.912Z,24.85
2022-08-25T14:54:45.396Z,24.85
2022-08-25T14:56:08.566Z,24.84
2022-08-25T14:57:25.632Z,24.84
2022-08-25T14:58:50.919Z,24.89
2022-08-25T15:00:09.079Z,24.84
2022-08-25T15:01:28.849Z,24.84
2022-08-25T15:02:46.680Z,24.85
2022-08-25T15:04:04.221Z,24.85
2022-08-25T15:05:21.912Z,24.84
2022-08-25T15:06:40.887Z,24.82
2022-08-25T15:08:02.371Z,24.82
2022-08-25T15:09:20.728Z,24.81
2022-08-25T15:10:40.264Z,24.84
2022-08-25T15:12:00.047Z,24.84
2022-08-25T15:13:22.263Z,24.84
2022-08-25T15:14:39.709Z,24.84
2022-08-25T15:16:00.992Z,24.82
2022-08-25T15:17:21.034Z,24.84
2022-08-25T15:18:37.445Z,24.84
2022-08-25T15:19:56.063Z,24.85
2022-08-25T15:21:14.341Z,24.82
2022-08-25T15:22:33.859Z,24.86
2022-08-25T15:23:56.522Z,24.89
2022-08-25T15:25:15.436Z,24.85
2022-08-25T15:26:34.086Z,24.85
2022-08-25T15:27:51.406Z,24.86
2022-08-25T15:29:09.766Z,24.86
2022-08-25T15:30:31.175Z,24.86
2022-08-25T15:31:50.276Z,24.85
2022-08-25T15:33:09.332Z,24.85
2022-08-25T15:34:27.707Z,24.84
2022-08-25T15:35:45.889Z,24.82
2022-08-25T15:37:04.540Z,24.85
2022-08-25T15:38:22.910Z,24.84
2022-08-25T15:39:41.541Z,24.82
2022-08-25T15:40:58.921Z,24.84
2022-08-25T15:42:17.833Z,24.84
2022-08-25T15:43:35.420Z,24.81
2022-08-25T15:44:54.503Z,24.82
2022-08-25T15:46:12.138Z,24.82
2022-08-25T15:47:30.514Z,24.82
2022-08-25T15:48:48.920Z,24.82
2022-08-25T15:50:07.260Z,24.84
2022-08-25T15:51:25.856Z,24.84
2022-08-25T15:52:46.171Z,24.82
2022-08-25T15:54:05.208Z,24.82
2022-08-25T15:55:23.526Z,24.82
2022-08-25T15:56:40.052Z,24.82
2022-08-25T15:57:58.712Z,24.84
2022-08-25T15:59:17.081Z,24.81
2022-08-25T16:00:35.474Z,24.81
2022-08-25T16:01:54.034Z,24.81
2022-08-25T16:03:12.470Z,24.81
2022-08-25T16:04:31.592Z,24.81
2022-08-25T16:05:48.731Z,24.81
2022-08-25T16:07:07.083Z,24.81
2022-08-25T16:08:27.045Z,24.79
2022-08-25T16:09:45.406Z,24.79
2022-08-25T16:11:03.052Z,24.79
2022-08-25T16:12:20.397Z,24.79
2022-08-25T16:13:37.827Z,24.81
2022-08-25T16:15:00.497Z,24.81
2022-08-25T16:16:18.041Z,24.81
2022-08-25T16:17:37.192Z,24.81
2022-08-25T16:18:59.348Z,24.79
2022-08-25T16:20:16.742Z,24.79
2022-08-25T16:21:36.151Z,24.82
2022-08-25T16:22:59.431Z,24.78
2022-08-25T16:24:18.072Z,24.81
2022-08-25T16:25:36.367Z,24.81
2022-08-25T16:26:55.802Z,24.79
2022-08-25T16:28:14.540Z,24.81
2022-08-25T16:29:34.235Z,24.81
2022-08-25T16:30:54.902Z,24.79
2022-08-25T16:32:13.406Z,24.79
2022-08-25T16:33:32.094Z,24.81
2022-08-25T16:34:50.595Z,24.76
2022-08-25T16:36:09.261Z,24.79
2022-08-25T16:37:25.737Z,24.81
2022-08-25T16:38:43.627Z,24.78
2022-08-25T16:40:06.880Z,24.76
2022-08-25T16:41:25.241Z,24.78
2022-08-25T16:42:43.905Z,24.79
2022-08-25T16:44:00.401Z,24.78
2022-08-25T16:45:18.886Z,24.78
2022-08-25T16:46:35.331Z,24.81
2022-08-25T16:47:53.705Z,24.78
2022-08-25T16:49:10.384Z,24.76
2022-08-25T16:50:28.765Z,24.78
2022-08-25T16:51:48.780Z,24.78
2022-08-25T16:53:10.784Z,24.78
2022-08-25T16:54:29.184Z,24.76
2022-08-25T16:55:47.879Z,24.76
2022-08-25T16:57:07.946Z,24.75
2022-08-25T16:58:26.288Z,24.75
2022-08-25T16:59:45.467Z,24.74
2022-08-25T17:01:03.886Z,24.75
2022-08-25T17:02:22.779Z,24.75
2022-08-25T17:03:44.111Z,24.71
2022-08-25T17:05:00.709Z,24.78
2022-08-25T17:06:18.079Z,24.71
2022-08-25T17:07:37.629Z,24.74
2022-08-25T17:08:54.260Z,24.76
2022-08-25T17:10:12.643Z,24.75
2022-08-25T17:11:31.283Z,24.75
2022-08-25T17:12:49.762Z,24.75
2022-08-25T17:14:11.202Z,24.75
2022-08-25T17:15:28.604Z,24.74
2022-08-25T17:16:47.383Z,24.71
2022-08-25T17:18:05.940Z,24.74
2022-08-25T17:19:24.316Z,24.75
2022-08-25T17:20:41.917Z,24.74
2022-08-25T17:22:01.536Z,24.70
2022-08-25T17:23:21.678Z,24.70
2022-08-25T17:24:40.452Z,24.74
2022-08-25T17:25:58.940Z,24.70
2022-08-25T17:27:15.721Z,24.71
2022-08-25T17:28:35.340Z,24.70
2022-08-25T17:29:53.160Z,24.71
2022-08-25T17:31:11.568Z,24.70
2022-08-25T17:32:30.587Z,24.68
2022-08-25T17:33:49.432Z,24.74
2022-08-25T17:35:06.849Z,24.70
2022-08-25T17:36:27.221Z,24.71
2022-08-25T17:37:43.863Z,24.70
2022-08-25T17:39:07.105Z,24.68
2022-08-25T17:40:25.000Z,24.68
2022-08-25T17:41:45.477Z,24.70
2022-08-25T17:43:03.828Z,24.70
2022-08-25T17:44:22.489Z,24.71
2022-08-25T17:45:40.958Z,24.70
2022-08-25T17:46:59.661Z,24.68
2022-08-25T17:48:18.598Z,24.70
2022-08-25T17:49:37.578Z,24.70
2022-08-25T17:50:58.829Z,24.70
2022-08-25T17:52:17.209Z,24.71
2022-08-25T17:53:36.841Z,24.70
2022-08-25T17:54:55.194Z,24.70
2022-08-25T17:56:18.575Z,24.70
2022-08-25T17:57:38.584Z,24.66
2022-08-25T17:58:57.502Z,24.68
2022-08-25T18:00:16.784Z,24.70
2022-08-25T18:01:33.690Z,24.71
2022-08-25T18:02:52.164Z,24.70
2022-08-25T18:04:17.143Z,24.68
2022-08-25T18:05:35.518Z,24.65
2022-08-25T18:06:54.160Z,24.71
2022-08-25T18:08:13.646Z,24.68